sensor_id;sensor_type;location;lat;lon;timestamp;pressure;altitude;pressure_sealevel;temperature;humidity
37298;BME280;30517;51.932;4.278;2023-05-16T00:00:29;102063.75;;;13.63;56.30
37298;BME280;30517;51.932;4.278;2023-05-16T00:03:14;102115.13;;;13.84;56.18
37298;BME280;30517;51.932;4.278;2023-05-16T00:05:55;102107.13;;;13.78;56.15
37298;BME280;30517;51.932;4.278;2023-05-16T00:08:37;102093.81;;;13.67;55.99
37298;BME280;30517;51.932;4.278;2023-05-16T00:11:17;102111.56;;;13.77;55.98
37298;BME280;30517;51.932;4.278;2023-05-16T00:13:58;102120.41;;;13.78;56.19
37298;BME280;30517;51.932;4.278;2023-05-16T00:16:40;102108.00;;;13.73;56.02
37298;BME280;30517;51.932;4.278;2023-05-16T00:19:21;102052.16;;;13.40;56.19
37298;BME280;30517;51.932;4.278;2023-05-16T00:22:02;102079.63;;;13.54;56.31
37298;BME280;30517;51.932;4.278;2023-05-16T00:24:43;102116.81;;;13.69;56.45
37298;BME280;30517;51.932;4.278;2023-05-16T00:27:24;102089.34;;;13.55;56.47
37298;BME280;30517;51.932;4.278;2023-05-16T00:30:05;102115.91;;;13.67;56.48
37298;BME280;30517;51.932;4.278;2023-05-16T00:32:46;102116.81;;;13.66;56.37
37298;BME280;30517;51.932;4.278;2023-05-16T00:35:27;102087.53;;;13.48;56.59
37298;BME280;30517;51.932;4.278;2023-05-16T00:38:08;102067.16;;;13.35;56.11
37298;BME280;30517;51.932;4.278;2023-05-16T00:40:49;102120.31;;;13.62;56.23
37298;BME280;30517;51.932;4.278;2023-05-16T00:43:30;102098.16;;;13.51;56.15
37298;BME280;30517;51.932;4.278;2023-05-16T00:46:10;102112.34;;;13.59;56.45
37298;BME280;30517;51.932;4.278;2023-05-16T00:48:51;102101.72;;;13.56;56.46
37298;BME280;30517;51.932;4.278;2023-05-16T00:51:32;102079.53;;;13.34;56.62
37298;BME280;30517;51.932;4.278;2023-05-16T00:54:13;102091.03;;;13.41;56.33
37298;BME280;30517;51.932;4.278;2023-05-16T00:56:54;102116.72;;;13.54;56.53
37298;BME280;30517;51.932;4.278;2023-05-16T00:59:36;102099.84;;;13.38;56.51
37298;BME280;30517;51.932;4.278;2023-05-16T01:02:17;102098.97;;;13.38;56.37
37298;BME280;30517;51.932;4.278;2023-05-16T01:04:59;102109.59;;;13.41;56.55
37298;BME280;30517;51.932;4.278;2023-05-16T01:07:40;102097.19;;;13.35;56.47
37298;BME280;30517;51.932;4.278;2023-05-16T01:10:21;102114.91;;;13.50;56.64
37298;BME280;30517;51.932;4.278;2023-05-16T01:13:11;102114.91;;;13.44;56.27
37298;BME280;30517;51.932;4.278;2023-05-16T01:16:04;102111.38;;;13.43;56.82
37298;BME280;30517;51.932;4.278;2023-05-16T01:19:12;102116.63;;;13.42;56.41
37298;BME280;30517;51.932;4.278;2023-05-16T01:25:38;102125.47;;;13.38;56.58
37298;BME280;30517;51.932;4.278;2023-05-16T01:28:18;102112.22;;;13.39;56.51
37298;BME280;30517;51.932;4.278;2023-05-16T01:30:59;102090.88;;;13.22;56.87
37298;BME280;30517;51.932;4.278;2023-05-16T01:33:40;102112.16;;;13.30;56.89
37298;BME280;30517;51.932;4.278;2023-05-16T01:39:33;102121.00;;;13.32;56.80
37298;BME280;30517;51.932;4.278;2023-05-16T01:42:18;102032.25;;;12.73;56.91
37298;BME280;30517;51.932;4.278;2023-05-16T01:45:07;102101.47;;;13.22;56.55
37298;BME280;30517;51.932;4.278;2023-05-16T01:47:57;102121.91;;;13.33;56.71
37298;BME280;30517;51.932;4.278;2023-05-16T01:50:48;102123.63;;;13.27;56.85
37298;BME280;30517;51.932;4.278;2023-05-16T01:53:38;102126.28;;;13.27;56.23
37298;BME280;30517;51.932;4.278;2023-05-16T01:56:19;102127.16;;;13.31;56.25
37298;BME280;30517;51.932;4.278;2023-05-16T01:59:03;102064.19;;;12.92;56.47
37298;BME280;30517;51.932;4.278;2023-05-16T02:01:44;102132.50;;;13.33;56.51
37298;BME280;30517;51.932;4.278;2023-05-16T02:04:25;102122.66;;;13.22;56.33
37298;BME280;30517;51.932;4.278;2023-05-16T02:07:06;102117.34;;;13.19;56.30
37298;BME280;30517;51.932;4.278;2023-05-16T02:09:47;102128.81;;;13.20;56.45
37298;BME280;30517;51.932;4.278;2023-05-16T02:12:27;102097.81;;;13.03;56.35
37298;BME280;30517;51.932;4.278;2023-05-16T02:15:08;102109.25;;;13.01;56.44
37298;BME280;30517;51.932;4.278;2023-05-16T02:17:49;102133.28;;;13.24;56.11
37298;BME280;30517;51.932;4.278;2023-05-16T02:20:30;102132.41;;;13.23;56.87
37298;BME280;30517;51.932;4.278;2023-05-16T02:23:12;102129.72;;;13.19;56.35
37298;BME280;30517;51.932;4.278;2023-05-16T02:25:53;102138.53;;;13.19;56.31
37298;BME280;30517;51.932;4.278;2023-05-16T02:28:33;102119.03;;;13.05;56.96
37298;BME280;30517;51.932;4.278;2023-05-16T02:31:27;102136.78;;;13.18;56.55
37298;BME280;30517;51.932;4.278;2023-05-16T02:34:09;102125.25;;;13.13;56.46
37298;BME280;30517;51.932;4.278;2023-05-16T02:36:50;102139.44;;;13.18;56.78
37298;BME280;30517;51.932;4.278;2023-05-16T02:39:30;102103.03;;;12.94;56.23
37298;BME280;30517;51.932;4.278;2023-05-16T02:42:11;102129.59;;;13.06;56.50
37298;BME280;30517;51.932;4.278;2023-05-16T02:44:52;102140.28;;;13.13;56.43
37298;BME280;30517;51.932;4.278;2023-05-16T02:47:33;102148.22;;;13.17;56.52
37298;BME280;30517;51.932;4.278;2023-05-16T02:50:14;102089.75;;;12.88;56.58
37298;BME280;30517;51.932;4.278;2023-05-16T02:52:55;102151.78;;;13.16;56.21
37298;BME280;30517;51.932;4.278;2023-05-16T02:55:35;102105.69;;;12.94;55.97
37298;BME280;30517;51.932;4.278;2023-05-16T02:58:16;102131.31;;;13.01;56.01
37298;BME280;30517;51.932;4.278;2023-05-16T03:00:57;102156.09;;;13.05;56.39
37298;BME280;30517;51.932;4.278;2023-05-16T03:03:38;102147.28;;;13.09;56.15
37298;BME280;30517;51.932;4.278;2023-05-16T03:06:19;102153.50;;;13.10;56.11
37298;BME280;30517;51.932;4.278;2023-05-16T03:09:00;102159.66;;;13.09;56.73
37298;BME280;30517;51.932;4.278;2023-05-16T03:11:41;102134.78;;;12.93;56.27
37298;BME280;30517;51.932;4.278;2023-05-16T03:14:22;102113.53;;;12.83;56.15
37298;BME280;30517;51.932;4.278;2023-05-16T03:17:03;102153.47;;;13.08;56.24
37298;BME280;30517;51.932;4.278;2023-05-16T03:19:43;102150.75;;;12.99;56.14
37298;BME280;30517;51.932;4.278;2023-05-16T03:22:24;102164.03;;;13.03;56.38
37298;BME280;30517;51.932;4.278;2023-05-16T03:25:05;102148.91;;;12.93;56.15
37298;BME280;30517;51.932;4.278;2023-05-16T03:27:47;102151.56;;;12.92;56.24
37298;BME280;30517;51.932;4.278;2023-05-16T03:30:27;102159.50;;;12.93;56.52
37298;BME280;30517;51.932;4.278;2023-05-16T03:33:08;102175.47;;;12.99;56.32
37298;BME280;30517;51.932;4.278;2023-05-16T03:35:49;102166.66;;;13.00;56.18
37298;BME280;30517;51.932;4.278;2023-05-16T03:38:31;102162.19;;;12.95;56.16
37298;BME280;30517;51.932;4.278;2023-05-16T03:41:11;102137.31;;;12.77;56.10
37298;BME280;30517;51.932;4.278;2023-05-16T03:43:52;102180.69;;;12.93;56.51
37298;BME280;30517;51.932;4.278;2023-05-16T03:46:34;102161.22;;;12.83;56.77
37298;BME280;30517;51.932;4.278;2023-05-16T03:49:15;102174.53;;;12.93;56.47
37298;BME280;30517;51.932;4.278;2023-05-16T03:51:55;102174.53;;;12.96;56.03
37298;BME280;30517;51.932;4.278;2023-05-16T03:54:36;102182.47;;;12.93;56.18
37298;BME280;30517;51.932;4.278;2023-05-16T03:57:17;102132.78;;;12.66;56.78
37298;BME280;30517;51.932;4.278;2023-05-16T03:59:58;102155.88;;;12.80;55.90
37298;BME280;30517;51.932;4.278;2023-05-16T04:02:40;102154.03;;;12.73;56.62
37298;BME280;30517;51.932;4.278;2023-05-16T04:05:21;102186.91;;;12.94;56.67
37298;BME280;30517;51.932;4.278;2023-05-16T04:08:02;102166.47;;;12.82;56.38
37298;BME280;30517;51.932;4.278;2023-05-16T04:10:43;102184.19;;;12.91;56.31
37298;BME280;30517;51.932;4.278;2023-05-16T04:13:24;102186.84;;;12.91;56.50
37298;BME280;30517;51.932;4.278;2023-05-16T04:16:05;102187.72;;;12.90;55.97
37298;BME280;30517;51.932;4.278;2023-05-16T04:18:46;102180.66;;;12.87;56.24
37298;BME280;30517;51.932;4.278;2023-05-16T04:21:27;102151.34;;;12.67;55.89
37298;BME280;30517;51.932;4.278;2023-05-16T04:24:08;102206.31;;;12.93;55.58
37298;BME280;30517;51.932;4.278;2023-05-16T04:26:48;102164.69;;;12.78;55.28
37298;BME280;30517;51.932;4.278;2023-05-16T04:29:30;102168.19;;;12.75;55.69
37298;BME280;30517;51.932;4.278;2023-05-16T04:32:11;102177.03;;;12.79;55.96
37298;BME280;30517;51.932;4.278;2023-05-16T04:34:52;102199.19;;;12.86;56.40
37298;BME280;30517;51.932;4.278;2023-05-16T04:37:33;102168.09;;;12.68;55.98
37298;BME280;30517;51.932;4.278;2023-05-16T04:40:14;102178.72;;;12.71;56.22
37298;BME280;30517;51.932;4.278;2023-05-16T04:42:56;102192.91;;;12.76;55.50
37298;BME280;30517;51.932;4.278;2023-05-16T04:45:37;102198.34;;;12.91;55.95
37298;BME280;30517;51.932;4.278;2023-05-16T04:48:18;102203.66;;;12.93;55.64
37298;BME280;30517;51.932;4.278;2023-05-16T04:50:59;102193.84;;;12.82;55.38
37298;BME280;30517;51.932;4.278;2023-05-16T04:53:40;102203.63;;;12.88;55.57
37298;BME280;30517;51.932;4.278;2023-05-16T04:56:20;102209.69;;;12.79;55.64
37298;BME280;30517;51.932;4.278;2023-05-16T04:59:01;102135.13;;;12.36;55.50
37298;BME280;30517;51.932;4.278;2023-05-16T05:01:43;102190.19;;;12.70;55.38
37298;BME280;30517;51.932;4.278;2023-05-16T05:04:23;102221.25;;;12.86;56.01
37298;BME280;30517;51.932;4.278;2023-05-16T05:07:05;102218.59;;;12.88;55.37
37298;BME280;30517;51.932;4.278;2023-05-16T05:09:45;102184.78;;;12.60;54.98
37298;BME280;30517;51.932;4.278;2023-05-16T05:12:26;102220.38;;;12.86;54.84
37298;BME280;30517;51.932;4.278;2023-05-16T05:15:07;102222.13;;;12.87;54.73
37298;BME280;30517;51.932;4.278;2023-05-16T05:17:49;102162.66;;;12.55;55.13
37298;BME280;30517;51.932;4.278;2023-05-16T05:20:30;102221.22;;;12.84;55.17
37298;BME280;30517;51.932;4.278;2023-05-16T05:23:11;102228.28;;;12.84;55.17
37298;BME280;30517;51.932;4.278;2023-05-16T05:25:52;102185.59;;;12.55;55.35
37298;BME280;30517;51.932;4.278;2023-05-16T05:28:33;102229.13;;;12.78;55.51
37298;BME280;30517;51.932;4.278;2023-05-16T05:31:13;102195.25;;;12.50;55.59
37298;BME280;30517;51.932;4.278;2023-05-16T05:33:54;102129.59;;;12.15;55.94
37298;BME280;30517;51.932;4.278;2023-05-16T05:36:35;102163.31;;;12.31;55.91
37298;BME280;30517;51.932;4.278;2023-05-16T05:39:16;102186.44;;;12.49;55.74
37298;BME280;30517;51.932;4.278;2023-05-16T05:41:57;102230.78;;;12.72;56.15
37298;BME280;30517;51.932;4.278;2023-05-16T05:44:38;102206.84;;;12.59;55.99
37298;BME280;30517;51.932;4.278;2023-05-16T05:47:19;102208.59;;;12.56;56.21
37298;BME280;30517;51.932;4.278;2023-05-16T05:50:00;102216.59;;;12.62;56.28
37298;BME280;30517;51.932;4.278;2023-05-16T05:52:41;102218.31;;;12.60;56.21
37298;BME280;30517;51.932;4.278;2023-05-16T05:55:23;102201.44;;;12.49;55.96
37298;BME280;30517;51.932;4.278;2023-05-16T05:58:03;102234.22;;;12.63;56.73
37298;BME280;30517;51.932;4.278;2023-05-16T06:00:44;102237.88;;;12.73;56.62
37298;BME280;30517;51.932;4.278;2023-05-16T06:03:25;102254.75;;;12.84;56.38
37298;BME280;30517;51.932;4.278;2023-05-16T06:06:06;102231.59;;;12.66;55.93
37298;BME280;30517;51.932;4.278;2023-05-16T06:08:50;102265.34;;;12.84;56.29
37298;BME280;30517;51.932;4.278;2023-05-16T06:11:40;102257.44;;;12.86;56.98
37298;BME280;30517;51.932;4.278;2023-05-16T06:14:21;102240.50;;;12.70;56.68
37298;BME280;30517;51.932;4.278;2023-05-16T06:17:02;102279.47;;;12.84;56.86
37298;BME280;30517;51.932;4.278;2023-05-16T06:19:43;102214.69;;;12.50;56.05
37298;BME280;30517;51.932;4.278;2023-05-16T06:22:24;102275.13;;;12.88;56.67
37298;BME280;30517;51.932;4.278;2023-05-16T06:25:05;102274.25;;;12.91;56.36
37298;BME280;30517;51.932;4.278;2023-05-16T06:27:46;102254.78;;;12.86;56.05
37298;BME280;30517;51.932;4.278;2023-05-16T06:30:27;102219.25;;;12.65;56.25
37298;BME280;30517;51.932;4.278;2023-05-16T06:33:08;102276.09;;;12.96;55.99
37298;BME280;30517;51.932;4.278;2023-05-16T06:35:49;102277.81;;;12.93;55.43
37298;BME280;30517;51.932;4.278;2023-05-16T06:38:29;102280.47;;;12.93;55.76
37298;BME280;30517;51.932;4.278;2023-05-16T06:41:10;102282.25;;;12.94;55.99
37298;BME280;30517;51.932;4.278;2023-05-16T06:43:51;102280.47;;;12.96;55.80
37298;BME280;30517;51.932;4.278;2023-05-16T06:46:32;102228.94;;;12.63;55.95
37298;BME280;30517;51.932;4.278;2023-05-16T06:49:13;102299.94;;;12.96;56.52
37298;BME280;30517;51.932;4.278;2023-05-16T06:51:54;102255.56;;;12.75;55.82
37298;BME280;30517;51.932;4.278;2023-05-16T06:54:35;102278.78;;;13.01;56.08
37298;BME280;30517;51.932;4.278;2023-05-16T06:57:16;102280.59;;;13.05;56.24
37298;BME280;30517;51.932;4.278;2023-05-16T06:59:56;102268.19;;;13.01;56.01
37298;BME280;30517;51.932;4.278;2023-05-16T07:02:37;102287.66;;;13.06;56.12
37298;BME280;30517;51.932;4.278;2023-05-16T07:05:18;102289.50;;;13.13;56.34
37298;BME280;30517;51.932;4.278;2023-05-16T07:07:59;102297.50;;;13.16;55.97
37298;BME280;30517;51.932;4.278;2023-05-16T07:10:40;102287.69;;;13.09;56.32
37298;BME280;30517;51.932;4.278;2023-05-16T07:13:24;102305.47;;;13.18;56.29
37298;BME280;30517;51.932;4.278;2023-05-16T07:16:05;102301.03;;;13.20;55.71
37298;BME280;30517;51.932;4.278;2023-05-16T07:18:47;102302.88;;;13.24;55.68
37298;BME280;30517;51.932;4.278;2023-05-16T07:21:28;102302.94;;;13.27;56.08
37298;BME280;30517;51.932;4.278;2023-05-16T07:24:13;102308.25;;;13.30;55.55
37298;BME280;30517;51.932;4.278;2023-05-16T07:26:53;102281.56;;;13.15;56.00
37298;BME280;30517;51.932;4.278;2023-05-16T07:29:34;102289.56;;;13.19;55.88
37298;BME280;30517;51.932;4.278;2023-05-16T07:32:16;102321.56;;;13.35;55.62
37298;BME280;30517;51.932;4.278;2023-05-16T07:34:57;102314.53;;;13.37;55.62
37298;BME280;30517;51.932;4.278;2023-05-16T07:37:38;102300.22;;;13.25;55.55
37298;BME280;30517;51.932;4.278;2023-05-16T07:40:21;102320.72;;;13.40;55.86
37298;BME280;30517;51.932;4.278;2023-05-16T07:43:07;102305.72;;;13.41;55.51
37298;BME280;30517;51.932;4.278;2023-05-16T07:45:48;102305.72;;;13.41;55.99
37298;BME280;30517;51.932;4.278;2023-05-16T07:48:29;102311.97;;;13.47;55.69
37298;BME280;30517;51.932;4.278;2023-05-16T07:51:10;102252.44;;;13.13;55.49
37298;BME280;30517;51.932;4.278;2023-05-16T07:53:51;102314.63;;;13.49;55.74
37298;BME280;30517;51.932;4.278;2023-05-16T07:56:32;102318.19;;;13.54;55.57
37298;BME280;30517;51.932;4.278;2023-05-16T07:59:13;102323.53;;;13.57;55.61
37298;BME280;30517;51.932;4.278;2023-05-16T08:01:54;102312.03;;;13.57;55.50
37298;BME280;30517;51.932;4.278;2023-05-16T08:04:35;102321.78;;;13.59;55.67
37298;BME280;30517;51.932;4.278;2023-05-16T08:07:16;102301.31;;;13.44;55.95
37298;BME280;30517;51.932;4.278;2023-05-16T08:09:57;102327.09;;;13.59;55.58
37298;BME280;30517;51.932;4.278;2023-05-16T08:12:38;102272.03;;;13.31;55.46
37298;BME280;30517;51.932;4.278;2023-05-16T08:15:19;102320.03;;;13.61;55.88
37298;BME280;30517;51.932;4.278;2023-05-16T08:18:00;102315.63;;;13.63;55.88
37298;BME280;30517;51.932;4.278;2023-05-16T08:20:41;102333.34;;;13.67;55.64
37298;BME280;30517;51.932;4.278;2023-05-16T08:23:22;102328.94;;;13.69;55.54
37298;BME280;30517;51.932;4.278;2023-05-16T08:26:03;102332.47;;;13.68;55.46
37298;BME280;30517;51.932;4.278;2023-05-16T08:28:44;102288.97;;;13.45;55.85
37298;BME280;30517;51.932;4.278;2023-05-16T08:31:25;102294.22;;;13.42;55.57
37298;BME280;30517;51.932;4.278;2023-05-16T08:34:05;102306.72;;;13.58;55.90
37298;BME280;30517;51.932;4.278;2023-05-16T08:36:48;102337.00;;;13.80;55.33
37298;BME280;30517;51.932;4.278;2023-05-16T08:39:29;102289.94;;;13.53;55.54
37298;BME280;30517;51.932;4.278;2023-05-16T08:42:10;102302.34;;;13.60;55.60
37298;BME280;30517;51.932;4.278;2023-05-16T08:44:50;102313.06;;;13.72;55.57
37298;BME280;30517;51.932;4.278;2023-05-16T08:47:31;102338.81;;;13.89;55.62
37298;BME280;30517;51.932;4.278;2023-05-16T08:50:13;102315.78;;;13.80;55.51
37298;BME280;30517;51.932;4.278;2023-05-16T08:52:55;102324.63;;;13.82;55.71
37298;BME280;30517;51.932;4.278;2023-05-16T08:55:36;102334.41;;;13.89;55.60
37298;BME280;30517;51.932;4.278;2023-05-16T08:58:18;102337.09;;;13.94;55.46
37298;BME280;30517;51.932;4.278;2023-05-16T09:01:00;102339.78;;;13.97;55.53
37298;BME280;30517;51.932;4.278;2023-05-16T09:03:43;102311.34;;;13.82;55.32
37298;BME280;30517;51.932;4.278;2023-05-16T09:06:24;102343.31;;;13.98;55.95
37298;BME280;30517;51.932;4.278;2023-05-16T09:09:05;102353.97;;;14.04;55.53
37298;BME280;30517;51.932;4.278;2023-05-16T09:11:48;102364.59;;;14.05;55.62
37298;BME280;30517;51.932;4.278;2023-05-16T09:14:29;102348.69;;;14.08;55.43
37298;BME280;30517;51.932;4.278;2023-05-16T09:17:10;102318.47;;;13.88;55.36
37298;BME280;30517;51.932;4.278;2023-05-16T09:19:51;102346.97;;;14.13;55.72
37298;BME280;30517;51.932;4.278;2023-05-16T09:22:36;102343.41;;;14.14;55.29
37298;BME280;30517;51.932;4.278;2023-05-16T09:25:19;102330.97;;;14.03;55.72
37298;BME280;30517;51.932;4.278;2023-05-16T09:28:00;102333.63;;;14.06;55.60
37298;BME280;30517;51.932;4.278;2023-05-16T09:30:45;102354.97;;;14.20;55.70
37298;BME280;30517;51.932;4.278;2023-05-16T09:33:26;102356.75;;;14.22;55.62
37298;BME280;30517;51.932;4.278;2023-05-16T09:36:08;102318.63;;;14.09;55.56
37298;BME280;30517;51.932;4.278;2023-05-16T09:38:50;102353.19;;;14.19;55.54
37298;BME280;30517;51.932;4.278;2023-05-16T09:41:34;102340.78;;;14.17;55.57
37298;BME280;30517;51.932;4.278;2023-05-16T09:44:17;102365.66;;;14.29;55.53
37298;BME280;30517;51.932;4.278;2023-05-16T09:47:00;102336.38;;;14.18;55.60
37298;BME280;30517;51.932;4.278;2023-05-16T09:49:41;102345.28;;;14.31;55.63
37298;BME280;30517;51.932;4.278;2023-05-16T09:52:21;102349.75;;;14.32;55.54
37298;BME280;30517;51.932;4.278;2023-05-16T09:55:07;102357.75;;;14.41;55.51
37298;BME280;30517;51.932;4.278;2023-05-16T09:57:48;102359.56;;;14.45;55.83
37298;BME280;30517;51.932;4.278;2023-05-16T10:00:31;102351.59;;;14.47;55.53
37298;BME280;30517;51.932;4.278;2023-05-16T10:03:14;102363.09;;;14.47;55.22
37298;BME280;30517;51.932;4.278;2023-05-16T10:05:55;102364.00;;;14.49;55.46
37298;BME280;30517;51.932;4.278;2023-05-16T10:08:36;102367.63;;;14.53;55.58
37298;BME280;30517;51.932;4.278;2023-05-16T10:11:18;102372.03;;;14.54;55.48
37298;BME280;30517;51.932;4.278;2023-05-16T10:13:59;102367.63;;;14.57;55.66
37298;BME280;30517;51.932;4.278;2023-05-16T10:16:42;102363.22;;;14.63;55.67
37298;BME280;30517;51.932;4.278;2023-05-16T10:19:24;102325.06;;;14.48;55.35
37298;BME280;30517;51.932;4.278;2023-05-16T10:22:06;102342.84;;;14.58;55.49
37298;BME280;30517;51.932;4.278;2023-05-16T10:24:57;102349.97;;;14.69;55.42
37298;BME280;30517;51.932;4.278;2023-05-16T10:27:41;102330.44;;;14.56;55.36
37298;BME280;30517;51.932;4.278;2023-05-16T10:30:22;102349.09;;;14.67;55.39
37298;BME280;30517;51.932;4.278;2023-05-16T10:33:03;102329.53;;;14.55;55.41
37298;BME280;30517;51.932;4.278;2023-05-16T10:35:44;102337.53;;;14.63;55.05
37298;BME280;30517;51.932;4.278;2023-05-16T10:38:26;102337.56;;;14.68;55.03
37298;BME280;30517;51.932;4.278;2023-05-16T10:41:08;102326.09;;;14.72;55.23
37298;BME280;30517;51.932;4.278;2023-05-16T10:43:56;102351.81;;;14.83;55.12
37298;BME280;30517;51.932;4.278;2023-05-16T10:46:37;102342.06;;;14.87;54.89
37298;BME280;30517;51.932;4.278;2023-05-16T10:49:20;102327.00;;;14.78;55.19
37298;BME280;30517;51.932;4.278;2023-05-16T10:54:50;102343.88;;;14.94;54.82
37298;BME280;30517;51.932;4.278;2023-05-16T10:57:32;102341.22;;;14.97;54.67
37298;BME280;30517;51.932;4.278;2023-05-16T11:00:21;102343.88;;;14.91;55.06
37298;BME280;30517;51.932;4.278;2023-05-16T11:03:21;102349.22;;;14.99;54.98
37298;BME280;30517;51.932;4.278;2023-05-16T11:06:08;102329.72;;;14.97;54.72
37298;BME280;30517;51.932;4.278;2023-05-16T11:17:20;102341.28;;;15.13;54.58
37298;BME280;30517;51.932;4.278;2023-05-16T11:20:02;102345.72;;;15.17;54.86
37298;BME280;30517;51.932;4.278;2023-05-16T11:22:43;102276.53;;;14.81;54.49
37298;BME280;30517;51.932;4.278;2023-05-16T11:25:34;102351.06;;;15.23;54.43
37298;BME280;30517;51.932;4.278;2023-05-16T11:28:18;102338.63;;;15.22;54.38
37298;BME280;30517;51.932;4.278;2023-05-16T11:30:59;102357.28;;;15.31;54.64
37298;BME280;30517;51.932;4.278;2023-05-16T11:33:44;102358.16;;;15.32;54.42
37298;BME280;30517;51.932;4.278;2023-05-16T11:36:28;102338.66;;;15.28;54.27
37298;BME280;30517;51.932;4.278;2023-05-16T11:39:10;102357.28;;;15.37;54.60
37298;BME280;30517;51.932;4.278;2023-05-16T11:41:52;102350.19;;;15.35;54.40
37298;BME280;30517;51.932;4.278;2023-05-16T11:44:33;102336.03;;;15.31;54.38
37298;BME280;30517;51.932;4.278;2023-05-16T11:47:14;102363.50;;;15.48;54.47
37298;BME280;30517;51.932;4.278;2023-05-16T11:49:56;102351.97;;;15.40;54.29
37298;BME280;30517;51.932;4.278;2023-05-16T11:52:47;102360.00;;;15.56;54.25
37298;BME280;30517;51.932;4.278;2023-05-16T11:55:29;102298.78;;;15.23;54.01
37298;BME280;30517;51.932;4.278;2023-05-16T11:58:10;102312.97;;;15.38;54.30
37298;BME280;30517;51.932;4.278;2023-05-16T12:00:51;102352.03;;;15.66;54.32
37298;BME280;30517;51.932;4.278;2023-05-16T12:03:32;102341.34;;;15.63;54.10
37298;BME280;30517;51.932;4.278;2023-05-16T12:06:14;102356.47;;;15.75;54.30
37298;BME280;30517;51.932;4.278;2023-05-16T12:08:55;102346.72;;;15.80;54.19
37298;BME280;30517;51.932;4.278;2023-05-16T12:11:36;102350.25;;;15.79;54.04
37298;BME280;30517;51.932;4.278;2023-05-16T12:14:18;102333.38;;;15.65;54.14
37298;BME280;30517;51.932;4.278;2023-05-16T12:17:02;102361.81;;;15.93;53.94
37298;BME280;30517;51.932;4.278;2023-05-16T12:19:43;102329.00;;;15.81;54.01
37298;BME280;30517;51.932;4.278;2023-05-16T12:22:25;102338.75;;;15.83;54.10
37298;BME280;30517;51.932;4.278;2023-05-16T12:28:06;102337.84;;;16.06;53.81
37298;BME280;30517;51.932;4.278;2023-05-16T12:30:47;102353.78;;;16.09;53.76
37298;BME280;30517;51.932;4.278;2023-05-16T12:33:28;102347.59;;;16.21;53.60
37298;BME280;30517;51.932;4.278;2023-05-16T12:36:12;102352.03;;;16.19;53.69
37298;BME280;30517;51.932;4.278;2023-05-16T12:38:54;102333.38;;;16.23;53.53
37298;BME280;30517;51.932;4.278;2023-05-16T12:41:39;102349.31;;;16.35;53.81
37298;BME280;30517;51.932;4.278;2023-05-16T12:44:20;102333.34;;;16.28;53.62
37298;BME280;30517;51.932;4.278;2023-05-16T12:47:03;102351.06;;;16.46;53.42
37298;BME280;30517;51.932;4.278;2023-05-16T12:49:44;102357.25;;;16.52;53.17
37298;BME280;30517;51.932;4.278;2023-05-16T12:52:27;102362.59;;;16.58;53.23
37298;BME280;30517;51.932;4.278;2023-05-16T12:55:08;102356.38;;;16.61;53.32
37298;BME280;30517;51.932;4.278;2023-05-16T12:57:54;102359.88;;;16.69;53.30
37298;BME280;30517;51.932;4.278;2023-05-16T13:00:36;102362.53;;;16.78;53.08
37298;BME280;30517;51.932;4.278;2023-05-16T13:03:18;102342.97;;;16.76;52.76
37298;BME280;30517;51.932;4.278;2023-05-16T13:05:59;102366.94;;;16.87;53.00
37298;BME280;30517;51.932;4.278;2023-05-16T13:08:40;102354.50;;;16.85;52.98
37298;BME280;30517;51.932;4.278;2023-05-16T13:11:21;102334.97;;;16.79;52.83
37298;BME280;30517;51.932;4.278;2023-05-16T13:14:02;102360.69;;;16.99;52.84
37298;BME280;30517;51.932;4.278;2023-05-16T13:16:43;102358.84;;;17.09;52.79
37298;BME280;30517;51.932;4.278;2023-05-16T13:19:24;102365.91;;;17.14;52.61
37298;BME280;30517;51.932;4.278;2023-05-16T13:22:05;102348.19;;;17.09;52.42
37298;BME280;30517;51.932;4.278;2023-05-16T13:24:46;102359.69;;;17.18;52.47
37298;BME280;30517;51.932;4.278;2023-05-16T13:27:26;102368.50;;;17.33;52.54
37298;BME280;30517;51.932;4.278;2023-05-16T13:30:08;102368.47;;;17.36;52.23
37298;BME280;30517;51.932;4.278;2023-05-16T13:32:49;102363.09;;;17.39;52.04
37298;BME280;30517;51.932;4.278;2023-05-16T13:35:31;102374.63;;;17.48;52.27
37298;BME280;30517;51.932;4.278;2023-05-16T13:38:15;102363.94;;;17.47;52.17
37298;BME280;30517;51.932;4.278;2023-05-16T13:40:55;102386.09;;;17.61;52.10
37298;BME280;30517;51.932;4.278;2023-05-16T13:43:36;102367.38;;;17.69;51.66
37298;BME280;30517;51.932;4.278;2023-05-16T13:46:17;102359.34;;;17.70;51.88
37298;BME280;30517;51.932;4.278;2023-05-16T13:48:58;102357.56;;;17.69;52.00
37298;BME280;30517;51.932;4.278;2023-05-16T13:51:39;102385.94;;;17.84;51.86
37298;BME280;30517;51.932;4.278;2023-05-16T13:54:20;102359.31;;;17.80;51.76
37298;BME280;30517;51.932;4.278;2023-05-16T13:57:01;102370.75;;;17.94;51.95
37298;BME280;30517;51.932;4.278;2023-05-16T13:59:42;102372.47;;;17.98;52.02
37298;BME280;30517;51.932;4.278;2023-05-16T14:02:23;102367.97;;;18.03;51.73
37298;BME280;30517;51.932;4.278;2023-05-16T14:05:05;102358.25;;;17.99;51.63
37298;BME280;30517;51.932;4.278;2023-05-16T14:07:46;102336.03;;;17.94;51.69
37298;BME280;30517;51.932;4.278;2023-05-16T14:10:27;102374.06;;;18.21;51.70
37298;BME280;30517;51.932;4.278;2023-05-16T14:13:08;102365.09;;;18.26;51.20
37298;BME280;30517;51.932;4.278;2023-05-16T14:15:49;102356.22;;;18.24;50.65
37298;BME280;30517;51.932;4.278;2023-05-16T14:18:30;102343.69;;;18.29;50.85
37298;BME280;30517;51.932;4.278;2023-05-16T14:21:11;102366.69;;;18.47;50.84
37298;BME280;30517;51.932;4.278;2023-05-16T14:23:52;102347.97;;;18.44;50.73
37298;BME280;30517;51.932;4.278;2023-05-16T14:26:33;102350.59;;;18.49;50.68